sensor_id;sensor_type;location;lat;lon;timestamp;temperature;humidity
7472;DHT22;3777;48.722;8.110;2024-03-23T00:51:39;14.30;99.90
7472;DHT22;3777;48.722;8.110;2024-03-23T00:54:05;14.40;99.90
7472;DHT22;3777;48.722;8.110;2024-03-23T00:56:32;14.50;99.90
7472;DHT22;3777;48.722;8.110;2024-03-23T00:58:58;14.60;99.90
7472;DHT22;3777;48.722;8.110;2024-03-23T01:01:24;14.70;99.90
7472;DHT22;3777;48.722;8.110;2024-03-23T01:03:50;14.70;99.90
7472;DHT22;3777;48.722;8.110;2024-03-23T01:06:17;14.80;99.90
7472;DHT22;3777;48.722;8.110;2024-03-23T01:08:45;14.90;99.90
7472;DHT22;3777;48.722;8.110;2024-03-23T01:11:12;14.90;99.90
7472;DHT22;3777;48.722;8.110;2024-03-23T01:13:38;14.90;99.90
7472;DHT22;3777;48.722;8.110;2024-03-23T01:16:05;14.90;99.90
7472;DHT22;3777;48.722;8.110;2024-03-23T01:18:32;14.80;99.90
7472;DHT22;3777;48.722;8.110;2024-03-23T01:20:59;14.80;99.90
7472;DHT22;3777;48.722;8.110;2024-03-23T01:23:25;14.70;99.90
7472;DHT22;3777;48.722;8.110;2024-03-23T01:25:54;14.60;99.90
7472;DHT22;3777;48.722;8.110;2024-03-23T01:28:20;14.50;99.90
7472;DHT22;3777;48.722;8.110;2024-03-23T01:30:51;14.50;99.90
7472;DHT22;3777;48.722;8.110;2024-03-23T01:33:17;14.40;99.90
7472;DHT22;3777;48.722;8.110;2024-03-23T01:35:44;14.40;99.90
7472;DHT22;3777;48.722;8.110;2024-03-23T01:38:09;14.30;99.90
7472;DHT22;3777;48.722;8.110;2024-03-23T01:40:36;14.30;99.90
7472;DHT22;3777;48.722;8.110;2024-03-23T01:43:06;14.20;99.90
7472;DHT22;3777;48.722;8.110;2024-03-23T01:45:34;14.20;99.90
7472;DHT22;3777;48.722;8.110;2024-03-23T01:48:01;14.20;99.90
7472;DHT22;3777;48.722;8.110;2024-03-23T01:50:28;14.30;99.90
7472;DHT22;3777;48.722;8.110;2024-03-23T01:52:56;14.30;99.90
7472;DHT22;3777;48.722;8.110;2024-03-23T01:55:24;14.30;99.90
7472;DHT22;3777;48.722;8.110;2024-03-23T01:57:51;14.30;99.90
7472;DHT22;3777;48.722;8.110;2024-03-23T02:00:19;14.30;99.90
7472;DHT22;3777;48.722;8.110;2024-03-23T02:02:46;14.30;99.90
7472;DHT22;3777;48.722;8.110;2024-03-23T02:05:13;14.30;99.90
7472;DHT22;3777;48.722;8.110;2024-03-23T02:07:39;14.30;99.90
7472;DHT22;3777;48.722;8.110;2024-03-23T02:10:06;14.30;99.90
7472;DHT22;3777;48.722;8.110;2024-03-23T02:12:32;14.30;99.90
7472;DHT22;3777;48.722;8.110;2024-03-23T02:15:03;14.20;99.90
7472;DHT22;3777;48.722;8.110;2024-03-23T02:17:34;14.20;99.90
7472;DHT22;3777;48.722;8.110;2024-03-23T02:20:01;14.10;99.90
7472;DHT22;3777;48.722;8.110;2024-03-23T02:22:35;14.00;99.90
7472;DHT22;3777;48.722;8.110;2024-03-23T02:25:04;13.90;99.90
7472;DHT22;3777;48.722;8.110;2024-03-23T02:27:30;13.80;99.90
7472;DHT22;3777;48.722;8.110;2024-03-23T02:29:57;13.80;99.90
7472;DHT22;3777;48.722;8.110;2024-03-23T02:32:23;13.80;99.90
7472;DHT22;3777;48.722;8.110;2024-03-23T02:34:50;13.80;99.90
7472;DHT22;3777;48.722;8.110;2024-03-23T02:37:16;13.70;99.90
7472;DHT22;3777;48.722;8.110;2024-03-23T02:39:43;13.70;99.90
7472;DHT22;3777;48.722;8.110;2024-03-23T02:42:10;13.70;99.90
7472;DHT22;3777;48.722;8.110;2024-03-23T02:44:37;13.70;99.90
7472;DHT22;3777;48.722;8.110;2024-03-23T02:47:03;13.60;99.90
7472;DHT22;3777;48.722;8.110;2024-03-23T02:49:30;13.60;99.90
7472;DHT22;3777;48.722;8.110;2024-03-23T02:51:56;13.60;99.90
7472;DHT22;3777;48.722;8.110;2024-03-23T02:54:23;13.60;99.90
7472;DHT22;3777;48.722;8.110;2024-03-23T02:56:49;13.50;99.90
7472;DHT22;3777;48.722;8.110;2024-03-23T02:59:17;13.50;99.90
7472;DHT22;3777;48.722;8.110;2024-03-23T03:01:43;13.50;99.90
7472;DHT22;3777;48.722;8.110;2024-03-23T03:04:10;13.50;99.90
7472;DHT22;3777;48.722;8.110;2024-03-23T03:06:36;13.50;99.90
7472;DHT22;3777;48.722;8.110;2024-03-23T03:09:03;13.50;99.90
7472;DHT22;3777;48.722;8.110;2024-03-23T03:11:29;13.60;99.90
7472;DHT22;3777;48.722;8.110;2024-03-23T03:13:56;13.60;99.90
7472;DHT22;3777;48.722;8.110;2024-03-23T03:16:23;13.70;99.90
7472;DHT22;3777;48.722;8.110;2024-03-23T03:18:50;13.70;99.90
7472;DHT22;3777;48.722;8.110;2024-03-23T03:21:16;13.70;99.90
7472;DHT22;3777;48.722;8.110;2024-03-23T03:23:44;13.80;99.90
7472;DHT22;3777;48.722;8.110;2024-03-23T03:26:10;13.70;99.90
7472;DHT22;3777;48.722;8.110;2024-03-23T03:28:37;13.80;99.90
7472;DHT22;3777;48.722;8.110;2024-03-23T03:31:03;13.80;99.90
7472;DHT22;3777;48.722;8.110;2024-03-23T03:33:31;13.90;99.90
7472;DHT22;3777;48.722;8.110;2024-03-23T03:35:57;13.90;99.90
7472;DHT22;3777;48.722;8.110;2024-03-23T03:38:24;13.90;99.90
7472;DHT22;3777;48.722;8.110;2024-03-23T03:40:50;13.90;99.90
7472;DHT22;3777;48.722;8.110;2024-03-23T03:43:18;13.90;99.90
7472;DHT22;3777;48.722;8.110;2024-03-23T03:45:51;13.80;99.90
7472;DHT22;3777;48.722;8.110;2024-03-23T03:48:18;13.80;99.90
7472;DHT22;3777;48.722;8.110;2024-03-23T03:50:45;13.60;99.90
7472;DHT22;3777;48.722;8.110;2024-03-23T03:53:12;13.50;99.90
7472;DHT22;3777;48.722;8.110;2024-03-23T03:55:38;13.40;99.90
7472;DHT22;3777;48.722;8.110;2024-03-23T03:58:05;13.30;99.90
7472;DHT22;3777;48.722;8.110;2024-03-23T04:00:31;13.30;99.90
7472;DHT22;3777;48.722;8.110;2024-03-23T04:02:58;13.20;99.90
7472;DHT22;3777;48.722;8.110;2024-03-23T04:05:24;13.30;99.90
7472;DHT22;3777;48.722;8.110;2024-03-23T04:07:53;13.20;99.90
7472;DHT22;3777;48.722;8.110;2024-03-23T04:10:19;13.20;99.90
7472;DHT22;3777;48.722;8.110;2024-03-23T04:12:47;13.30;99.90
7472;DHT22;3777;48.722;8.110;2024-03-23T04:15:13;13.20;99.90
7472;DHT22;3777;48.722;8.110;2024-03-23T04:17:40;13.10;99.90
7472;DHT22;3777;48.722;8.110;2024-03-23T04:20:09;13.10;99.90
7472;DHT22;3777;48.722;8.110;2024-03-23T04:22:36;13.10;99.90
7472;DHT22;3777;48.722;8.110;2024-03-23T04:25:05;13.10;99.90
7472;DHT22;3777;48.722;8.110;2024-03-23T04:27:33;13.10;99.90
7472;DHT22;3777;48.722;8.110;2024-03-23T04:29:59;13.10;99.90
7472;DHT22;3777;48.722;8.110;2024-03-23T04:32:26;13.00;99.90
7472;DHT22;3777;48.722;8.110;2024-03-23T04:34:53;12.90;99.90
7472;DHT22;3777;48.722;8.110;2024-03-23T04:37:20;12.90;99.90
7472;DHT22;3777;48.722;8.110;2024-03-23T04:39:47;12.90;99.90
7472;DHT22;3777;48.722;8.110;2024-03-23T04:42:16;12.80;99.90
7472;DHT22;3777;48.722;8.110;2024-03-23T04:44:43;12.80;99.90
7472;DHT22;3777;48.722;8.110;2024-03-23T04:47:10;12.70;99.90
7472;DHT22;3777;48.722;8.110;2024-03-23T04:49:36;12.50;99.90
7472;DHT22;3777;48.722;8.110;2024-03-23T04:52:04;12.40;99.90
7472;DHT22;3777;48.722;8.110;2024-03-23T04:54:31;12.40;99.90
7472;DHT22;3777;48.722;8.110;2024-03-23T04:56:59;12.40;99.90
7472;DHT22;3777;48.722;8.110;2024-03-23T04:59:27;12.40;99.90
7472;DHT22;3777;48.722;8.110;2024-03-23T05:01:53;12.30;99.90
7472;DHT22;3777;48.722;8.110;2024-03-23T05:04:20;12.30;99.90
7472;DHT22;3777;48.722;8.110;2024-03-23T05:06:46;12.30;99.90
7472;DHT22;3777;48.722;8.110;2024-03-23T05:09:13;12.20;99.90
7472;DHT22;3777;48.722;8.110;2024-03-23T05:11:39;12.20;99.90
7472;DHT22;3777;48.722;8.110;2024-03-23T05:14:07;12.20;99.90
7472;DHT22;3777;48.722;8.110;2024-03-23T05:16:34;12.20;99.90
7472;DHT22;3777;48.722;8.110;2024-03-23T05:19:01;12.20;99.90
7472;DHT22;3777;48.722;8.110;2024-03-23T05:21:27;12.20;99.90
7472;DHT22;3777;48.722;8.110;2024-03-23T05:23:55;12.20;99.90
7472;DHT22;3777;48.722;8.110;2024-03-23T05:26:22;12.20;99.90
7472;DHT22;3777;48.722;8.110;2024-03-23T05:28:49;12.20;99.90
7472;DHT22;3777;48.722;8.110;2024-03-23T05:31:23;12.00;99.90
7472;DHT22;3777;48.722;8.110;2024-03-23T05:33:51;12.10;99.90
7472;DHT22;3777;48.722;8.110;2024-03-23T05:36:18;12.10;99.90
7472;DHT22;3777;48.722;8.110;2024-03-23T05:38:45;12.00;99.90
7472;DHT22;3777;48.722;8.110;2024-03-23T05:41:11;11.90;99.90
7472;DHT22;3777;48.722;8.110;2024-03-23T05:43:38;11.80;99.90
7472;DHT22;3777;48.722;8.110;2024-03-23T05:46:03;11.80;99.90
7472;DHT22;3777;48.722;8.110;2024-03-23T05:48:31;11.80;99.90
7472;DHT22;3777;48.722;8.110;2024-03-23T05:50:59;11.80;99.90
7472;DHT22;3777;48.722;8.110;2024-03-23T05:53:26;11.80;99.90
7472;DHT22;3777;48.722;8.110;2024-03-23T05:56:00;11.80;99.90
7472;DHT22;3777;48.722;8.110;2024-03-23T05:58:29;11.70;99.90
7472;DHT22;3777;48.722;8.110;2024-03-23T06:01:00;11.70;99.90
7472;DHT22;3777;48.722;8.110;2024-03-23T06:03:27;11.60;99.90
7472;DHT22;3777;48.722;8.110;2024-03-23T06:05:54;11.70;99.90
7472;DHT22;3777;48.722;8.110;2024-03-23T06:08:21;11.60;99.90
7472;DHT22;3777;48.722;8.110;2024-03-23T06:10:49;11.60;99.90
7472;DHT22;3777;48.722;8.110;2024-03-23T06:13:16;11.60;99.90
7472;DHT22;3777;48.722;8.110;2024-03-23T06:15:43;11.60;99.90
7472;DHT22;3777;48.722;8.110;2024-03-23T06:18:09;11.60;99.90
7472;DHT22;3777;48.722;8.110;2024-03-23T06:20:37;11.50;99.90
7472;DHT22;3777;48.722;8.110;2024-03-23T06:23:03;11.60;99.90
7472;DHT22;3777;48.722;8.110;2024-03-23T06:25:32;11.60;99.90
7472;DHT22;3777;48.722;8.110;2024-03-23T06:27:58;11.50;99.90
7472;DHT22;3777;48.722;8.110;2024-03-23T06:30:28;11.40;99.90
7472;DHT22;3777;48.722;8.110;2024-03-23T06:32:55;11.40;99.90
7472;DHT22;3777;48.722;8.110;2024-03-23T06:35:22;11.40;99.90
7472;DHT22;3777;48.722;8.110;2024-03-23T06:37:48;11.40;99.90
7472;DHT22;3777;48.722;8.110;2024-03-23T06:40:15;11.50;99.90
7472;DHT22;3777;48.722;8.110;2024-03-23T06:42:42;11.40;99.90
7472;DHT22;3777;48.722;8.110;2024-03-23T06:45:09;11.50;99.90
7472;DHT22;3777;48.722;8.110;2024-03-23T06:47:35;11.60;99.90
7472;DHT22;3777;48.722;8.110;2024-03-23T06:50:03;11.50;99.90
7472;DHT22;3777;48.722;8.110;2024-03-23T06:52:29;11.60;99.90
7472;DHT22;3777;48.722;8.110;2024-03-23T06:54:57;11.60;99.90
7472;DHT22;3777;48.722;8.110;2024-03-23T06:57:23;11.60;99.90
7472;DHT22;3777;48.722;8.110;2024-03-23T06:59:51;11.50;99.90
7472;DHT22;3777;48.722;8.110;2024-03-23T07:02:17;11.50;99.90
7472;DHT22;3777;48.722;8.110;2024-03-23T07:04:44;11.50;99.90
7472;DHT22;3777;48.722;8.110;2024-03-23T07:07:10;11.50;99.90
7472;DHT22;3777;48.722;8.110;2024-03-23T07:09:38;11.60;99.90
7472;DHT22;3777;48.722;8.110;2024-03-23T07:12:05;11.70;99.90
7472;DHT22;3777;48.722;8.110;2024-03-23T07:14:32;11.50;99.90
7472;DHT22;3777;48.722;8.110;2024-03-23T07:16:59;11.50;99.90
7472;DHT22;3777;48.722;8.110;2024-03-23T07:19:26;11.50;99.90
7472;DHT22;3777;48.722;8.110;2024-03-23T07:21:54;11.50;99.90
7472;DHT22;3777;48.722;8.110;2024-03-23T07:24:21;11.50;99.90
7472;DHT22;3777;48.722;8.110;2024-03-23T07:26:47;11.50;99.90
7472;DHT22;3777;48.722;8.110;2024-03-23T07:29:14;11.50;99.90
7472;DHT22;3777;48.722;8.110;2024-03-23T07:31:40;11.40;99.90
7472;DHT22;3777;48.722;8.110;2024-03-23T07:34:09;11.40;99.90
7472;DHT22;3777;48.722;8.110;2024-03-23T07:36:35;11.30;99.90
7472;DHT22;3777;48.722;8.110;2024-03-23T07:39:01;11.20;99.90
7472;DHT22;3777;48.722;8.110;2024-03-23T07:41:29;11.20;99.90
7472;DHT22;3777;48.722;8.110;2024-03-23T07:43:56;11.20;99.90
7472;DHT22;3777;48.722;8.110;2024-03-23T07:46:22;11.40;99.90
7472;DHT22;3777;48.722;8.110;2024-03-23T07:48:50;11.70;99.90
7472;DHT22;3777;48.722;8.110;2024-03-23T07:51:20;11.60;99.90
7472;DHT22;3777;48.722;8.110;2024-03-23T07:53:47;11.70;99.90
7472;DHT22;3777;48.722;8.110;2024-03-23T07:56:15;11.70;99.90
7472;DHT22;3777;48.722;8.110;2024-03-23T07:58:42;11.90;99.90
7472;DHT22;3777;48.722;8.110;2024-03-23T08:01:11;11.90;99.90
7472;DHT22;3777;48.722;8.110;2024-03-23T08:03:39;11.80;99.90
7472;DHT22;3777;48.722;8.110;2024-03-23T08:06:09;11.80;99.90
7472;DHT22;3777;48.722;8.110;2024-03-23T08:08:37;12.00;99.90
7472;DHT22;3777;48.722;8.110;2024-03-23T08:11:05;12.00;99.90
7472;DHT22;3777;48.722;8.110;2024-03-23T08:13:31;11.90;99.90
7472;DHT22;3777;48.722;8.110;2024-03-23T08:15:58;11.90;99.90
7472;DHT22;3777;48.722;8.110;2024-03-23T08:18:24;11.90;99.90
7472;DHT22;3777;48.722;8.110;2024-03-23T08:20:58;12.10;99.90
7472;DHT22;3777;48.722;8.110;2024-03-23T08:23:24;12.20;99.90
7472;DHT22;3777;48.722;8.110;2024-03-23T08:25:57;12.20;99.90
7472;DHT22;3777;48.722;8.110;2024-03-23T08:28:23;12.30;99.90
7472;DHT22;3777;48.722;8.110;2024-03-23T08:30:50;12.10;99.90
7472;DHT22;3777;48.722;8.110;2024-03-23T08:33:17;12.10;99.90
7472;DHT22;3777;48.722;8.110;2024-03-23T08:35:53;12.20;99.90
7472;DHT22;3777;48.722;8.110;2024-03-23T08:38:20;12.20;99.90
7472;DHT22;3777;48.722;8.110;2024-03-23T08:40:46;12.00;99.90
7472;DHT22;3777;48.722;8.110;2024-03-23T08:43:14;11.90;99.90
7472;DHT22;3777;48.722;8.110;2024-03-23T08:45:40;11.80;99.90
7472;DHT22;3777;48.722;8.110;2024-03-23T08:48:07;11.80;99.90
7472;DHT22;3777;48.722;8.110;2024-03-23T08:50:34;12.00;99.90
7472;DHT22;3777;48.722;8.110;2024-03-23T08:53:01;12.10;99.90
7472;DHT22;3777;48.722;8.110;2024-03-23T08:55:28;12.20;99.90
7472;DHT22;3777;48.722;8.110;2024-03-23T08:57:56;12.50;99.90
7472;DHT22;3777;48.722;8.110;2024-03-23T09:00:23;13.00;99.90
7472;DHT22;3777;48.722;8.110;2024-03-23T09:02:50;13.40;99.90
7472;DHT22;3777;48.722;8.110;2024-03-23T09:05:16;13.80;99.90
7472;DHT22;3777;48.722;8.110;2024-03-23T09:07:43;14.00;99.90
7472;DHT22;3777;48.722;8.110;2024-03-23T09:10:09;14.30;99.90
7472;DHT22;3777;48.722;8.110;2024-03-23T09:12:36;14.70;99.90
7472;DHT22;3777;48.722;8.110;2024-03-23T09:15:04;15.00;99.90
7472;DHT22;3777;48.722;8.110;2024-03-23T09:17:32;15.50;99.90
7472;DHT22;3777;48.722;8.110;2024-03-23T09:19:59;15.80;99.90
7472;DHT22;3777;48.722;8.110;2024-03-23T09:22:26;16.20;99.90
7472;DHT22;3777;48.722;8.110;2024-03-23T09:24:52;16.50;99.90
7472;DHT22;3777;48.722;8.110;2024-03-23T09:27:19;16.70;99.90
7472;DHT22;3777;48.722;8.110;2024-03-23T09:29:45;17.30;99.90
7472;DHT22;3777;48.722;8.110;2024-03-23T09:32:13;17.60;99.90
7472;DHT22;3777;48.722;8.110;2024-03-23T09:34:40;17.50;99.90
7472;DHT22;3777;48.722;8.110;2024-03-23T09:37:07;17.50;99.90
7472;DHT22;3777;48.722;8.110;2024-03-23T09:39:33;17.50;99.90
7472;DHT22;3777;48.722;8.110;2024-03-23T09:42:00;16.70;99.90
7472;DHT22;3777;48.722;8.110;2024-03-23T09:44:26;15.00;99.90
7472;DHT22;3777;48.722;8.110;2024-03-23T09:46:55;13.90;99.90
7472;DHT22;3777;48.722;8.110;2024-03-23T09:49:21;13.00;99.90
7472;DHT22;3777;48.722;8.110;2024-03-23T09:51:49;12.50;99.90
7472;DHT22;3777;48.722;8.110;2024-03-23T09:54:16;11.90;99.90
7472;DHT22;3777;48.722;8.110;2024-03-23T09:56:43;11.20;99.90
7472;DHT22;3777;48.722;8.110;2024-03-23T09:59:09;11.10;99.90
7472;DHT22;3777;48.722;8.110;2024-03-23T10:01:36;11.00;99.90
7472;DHT22;3777;48.722;8.110;2024-03-23T10:04:03;10.90;99.90
7472;DHT22;3777;48.722;8.110;2024-03-23T10:06:30;10.70;99.90
7472;DHT22;3777;48.722;8.110;2024-03-23T10:08:58;10.70;99.90
7472;DHT22;3777;48.722;8.110;2024-03-23T10:11:25;10.80;99.90
7472;DHT22;3777;48.722;8.110;2024-03-23T10:13:52;10.80;99.90
7472;DHT22;3777;48.722;8.110;2024-03-23T10:16:23;10.90;99.90
7472;DHT22;3777;48.722;8.110;2024-03-23T10:18:49;11.10;99.90
7472;DHT22;3777;48.722;8.110;2024-03-23T10:21:16;11.40;99.90
7472;DHT22;3777;48.722;8.110;2024-03-23T10:23:43;11.40;99.90
7472;DHT22;3777;48.722;8.110;2024-03-23T10:26:17;11.60;99.90
7472;DHT22;3777;48.722;8.110;2024-03-23T10:28:54;11.80;99.90
7472;DHT22;3777;48.722;8.110;2024-03-23T10:31:23;12.00;99.90
7472;DHT22;3777;48.722;8.110;2024-03-23T10:33:50;12.30;99.90
7472;DHT22;3777;48.722;8.110;2024-03-23T10:36:19;12.60;99.90
7472;DHT22;3777;48.722;8.110;2024-03-23T10:38:46;12.70;99.90
7472;DHT22;3777;48.722;8.110;2024-03-23T10:41:16;12.70;99.90
7472;DHT22;3777;48.722;8.110;2024-03-23T10:43:43;12.70;99.90
7472;DHT22;3777;48.722;8.110;2024-03-23T10:46:11;12.70;99.90
7472;DHT22;3777;48.722;8.110;2024-03-23T10:48:37;12.50;99.90
7472;DHT22;3777;48.722;8.110;2024-03-23T10:51:06;12.50;99.90
7472;DHT22;3777;48.722;8.110;2024-03-23T10:53:34;12.10;99.90
7472;DHT22;3777;48.722;8.110;2024-03-23T10:56:03;11.60;99.90
7472;DHT22;3777;48.722;8.110;2024-03-23T10:58:37;11.40;99.90
7472;DHT22;3777;48.722;8.110;2024-03-23T11:01:04;10.80;99.90
7472;DHT22;3777;48.722;8.110;2024-03-23T11:03:32;10.60;99.90
7472;DHT22;3777;48.722;8.110;2024-03-23T11:05:59;10.50;99.90
7472;DHT22;3777;48.722;8.110;2024-03-23T11:08:34;10.30;99.90
7472;DHT22;3777;48.722;8.110;2024-03-23T11:11:21;10.10;99.90
7472;DHT22;3777;48.722;8.110;2024-03-23T11:13:51;9.90;99.90
7472;DHT22;3777;48.722;8.110;2024-03-23T11:16:23;9.70;99.90
7472;DHT22;3777;48.722;8.110;2024-03-23T11:18:50;9.70;99.90
7472;DHT22;3777;48.722;8.110;2024-03-23T11:21:53;9.70;99.90
7472;DHT22;3777;48.722;8.110;2024-03-23T11:24:21;9.70;99.90
7472;DHT22;3777;48.722;8.110;2024-03-23T11:26:48;9.70;99.90
7472;DHT22;3777;48.722;8.110;2024-03-23T11:29:17;9.80;99.90
7472;DHT22;3777;48.722;8.110;2024-03-23T11:31:47;9.80;99.90
7472;DHT22;3777;48.722;8.110;2024-03-23T11:34:15;9.80;99.90
7472;DHT22;3777;48.722;8.110;2024-03-23T11:36:41;9.70;99.90
7472;DHT22;3777;48.722;8.110;2024-03-23T11:39:15;9.70;99.90
7472;DHT22;3777;48.722;8.110;2024-03-23T11:41:46;9.60;99.90
7472;DHT22;3777;48.722;8.110;2024-03-23T11:44:19;9.50;99.90
7472;DHT22;3777;48.722;8.110;2024-03-23T11:46:46;9.60;99.90
7472;DHT22;3777;48.722;8.110;2024-03-23T11:49:22;9.60;99.90
7472;DHT22;3777;48.722;8.110;2024-03-23T11:51:50;9.70;99.90
7472;DHT22;3777;48.722;8.110;2024-03-23T11:54:16;9.90;99.90
7472;DHT22;3777;48.722;8.110;2024-03-23T11:56:55;10.40;99.90
7472;DHT22;3777;48.722;8.110;2024-03-23T11:59:33;10.70;99.90
7472;DHT22;3777;48.722;8.110;2024-03-23T12:02:05;10.80;99.90
7472;DHT22;3777;48.722;8.110;2024-03-23T12:04:31;10.80;99.90
7472;DHT22;3777;48.722;8.110;2024-03-23T12:07:11;10.80;99.90
7472;DHT22;3777;48.722;8.110;2024-03-23T12:09:39;10.70;99.90
7472;DHT22;3777;48.722;8.110;2024-03-23T12:12:10;10.60;99.90
7472;DHT22;3777;48.722;8.110;2024-03-23T12:14:40;10.50;99.90
7472;DHT22;3777;48.722;8.110;2024-03-23T12:17:13;10.70;99.90
7472;DHT22;3777;48.722;8.110;2024-03-23T12:19:42;10.80;99.90
7472;DHT22;3777;48.722;8.110;2024-03-23T12:22:08;11.00;99.90
7472;DHT22;3777;48.722;8.110;2024-03-23T12:24:35;11.10;99.90
7472;DHT22;3777;48.722;8.110;2024-03-23T12:27:02;10.90;99.90
7472;DHT22;3777;48.722;8.110;2024-03-23T12:29:30;11.00;99.90
7472;DHT22;3777;48.722;8.110;2024-03-23T12:31:59;11.30;99.90
7472;DHT22;3777;48.722;8.110;2024-03-23T12:34:26;11.60;99.90
7472;DHT22;3777;48.722;8.110;2024-03-23T12:36:53;11.50;99.90
7472;DHT22;3777;48.722;8.110;2024-03-23T12:39:19;11.40;99.90
7472;DHT22;3777;48.722;8.110;2024-03-23T12:41:47;11.40;99.90
7472;DHT22;3777;48.722;8.110;2024-03-23T12:44:13;11.40;99.90
7472;DHT22;3777;48.722;8.110;2024-03-23T12:46:40;11.60;99.90
7472;DHT22;3777;48.722;8.110;2024-03-23T12:49:08;11.00;99.90
7472;DHT22;3777;48.722;8.110;2024-03-23T12:51:35;10.80;99.90
7472;DHT22;3777;48.722;8.110;2024-03-23T12:54:01;10.60;99.90
7472;DHT22;3777;48.722;8.110;2024-03-23T12:56:28;10.50;99.90
7472;DHT22;3777;48.722;8.110;2024-03-23T12:58:54;10.40;99.90
7472;DHT22;3777;48.722;8.110;2024-03-23T13:01:22;10.50;99.90
7472;DHT22;3777;48.722;8.110;2024-03-23T13:03:48;10.70;99.90
7472;DHT22;3777;48.722;8.110;2024-03-23T13:06:17;10.80;99.90
7472;DHT22;3777;48.722;8.110;2024-03-23T13:08:45;11.10;99.90
7472;DHT22;3777;48.722;8.110;2024-03-23T13:11:13;11.20;99.90
7472;DHT22;3777;48.722;8.110;2024-03-23T13:13:39;11.20;99.90
7472;DHT22;3777;48.722;8.110;2024-03-23T13:16:07;11.60;99.90
7472;DHT22;3777;48.722;8.110;2024-03-23T13:18:33;11.70;99.90
7472;DHT22;3777;48.722;8.110;2024-03-23T13:21:01;11.80;99.90
7472;DHT22;3777;48.722;8.110;2024-03-23T13:23:29;11.50;99.90
7472;DHT22;3777;48.722;8.110;2024-03-23T13:25:57;11.20;99.90
7472;DHT22;3777;48.722;8.110;2024-03-23T13:28:23;11.00;99.90
7472;DHT22;3777;48.722;8.110;2024-03-23T13:30:51;11.00;99.90
7472;DHT22;3777;48.722;8.110;2024-03-23T13:33:17;11.30;99.90
7472;DHT22;3777;48.722;8.110;2024-03-23T13:35:51;11.50;99.90
7472;DHT22;3777;48.722;8.110;2024-03-23T13:38:17;11.80;99.90
7472;DHT22;3777;48.722;8.110;2024-03-23T13:40:52;11.90;99.90
7472;DHT22;3777;48.722;8.110;2024-03-23T13:43:18;12.10;99.90
7472;DHT22;3777;48.722;8.110;2024-03-23T13:45:47;12.40;99.90
7472;DHT22;3777;48.722;8.110;2024-03-23T13:48:13;12.60;99.90
7472;DHT22;3777;48.722;8.110;2024-03-23T13:50:40;12.40;99.90
7472;DHT22;3777;48.722;8.110;2024-03-23T13:53:09;12.20;99.90
7472;DHT22;3777;48.722;8.110;2024-03-23T13:55:37;12.30;99.90
7472;DHT22;3777;48.722;8.110;2024-03-23T13:58:04;12.30;99.90
7472;DHT22;3777;48.722;8.110;2024-03-23T14:00:31;12.30;99.90
7472;DHT22;3777;48.722;8.110;2024-03-23T14:02:58;12.20;99.90
7472;DHT22;3777;48.722;8.110;2024-03-23T14:05:25;11.90;99.90
7472;DHT22;3777;48.722;8.110;2024-03-23T14:07:51;11.70;99.90
7472;DHT22;3777;48.722;8.110;2024-03-23T14:10:17;11.70;99.90
7472;DHT22;3777;48.722;8.110;2024-03-23T14:12:43;11.90;99.90
7472;DHT22;3777;48.722;8.110;2024-03-23T14:15:13;12.10;99.90
7472;DHT22;3777;48.722;8.110;2024-03-23T14:17:39;12.20;99.90
7472;DHT22;3777;48.722;8.110;2024-03-23T14:20:06;12.10;99.90
7472;DHT22;3777;48.722;8.110;2024-03-23T14:22:36;12.10;99.90
7472;DHT22;3777;48.722;8.110;2024-03-23T14:25:04;12.10;99.90
7472;DHT22;3777;48.722;8.110;2024-03-23T14:27:30;12.10;99.90
7472;DHT22;3777;48.722;8.110;2024-03-23T14:29:57;12.00;99.90
7472;DHT22;3777;48.722;8.110;2024-03-23T14:32:25;12.00;99.90
7472;DHT22;3777;48.722;8.110;2024-03-23T14:34:52;12.00;99.90
7472;DHT22;3777;48.722;8.110;2024-03-23T14:37:20;12.10;99.90
7472;DHT22;3777;48.722;8.110;2024-03-23T14:39:47;12.10;99.90
7472;DHT22;3777;48.722;8.110;2024-03-23T14:42:12;12.10;99.90
7472;DHT22;3777;48.722;8.110;2024-03-23T14:44:39;12.10;99.90
7472;DHT22;3777;48.722;8.110;2024-03-23T14:47:06;12.10;99.90
7472;DHT22;3777;48.722;8.110;2024-03-23T14:49:34;12.20;99.90
7472;DHT22;3777;48.722;8.110;2024-03-23T14:52:00;12.30;99.90
7472;DHT22;3777;48.722;8.110;2024-03-23T14:54:28;12.40;99.90
7472;DHT22;3777;48.722;8.110;2024-03-23T14:56:54;12.50;99.90
7472;DHT22;3777;48.722;8.110;2024-03-23T14:59:22;12.50;99.90
7472;DHT22;3777;48.722;8.110;2024-03-23T15:01:48;12.30;99.90
7472;DHT22;3777;48.722;8.110;2024-03-23T15:04:15;12.20;99.90
7472;DHT22;3777;48.722;8.110;2024-03-23T15:06:42;12.20;99.90
7472;DHT22;3777;48.722;8.110;2024-03-23T15:09:11;12.10;99.90
7472;DHT22;3777;48.722;8.110;2024-03-23T15:11:37;12.20;99.90
7472;DHT22;3777;48.722;8.110;2024-03-23T15:14:05;12.30;99.90
7472;DHT22;3777;48.722;8.110;2024-03-23T15:16:32;12.20;99.90
7472;DHT22;3777;48.722;8.110;2024-03-23T15:18:59;12.20;99.90
7472;DHT22;3777;48.722;8.110;2024-03-23T15:21:25;12.10;99.90
7472;DHT22;3777;48.722;8.110;2024-03-23T15:23:54;12.10;99.90
7472;DHT22;3777;48.722;8.110;2024-03-23T15:26:20;12.00;99.90
7472;DHT22;3777;48.722;8.110;2024-03-23T15:28:48;12.00;99.90
7472;DHT22;3777;48.722;8.110;2024-03-23T15:31:35;11.90;99.90
7472;DHT22;3777;48.722;8.110;2024-03-23T15:34:02;11.80;99.90
7472;DHT22;3777;48.722;8.110;2024-03-23T15:36:29;11.70;99.90
7472;DHT22;3777;48.722;8.110;2024-03-23T15:38:58;11.50;99.90
7472;DHT22;3777;48.722;8.110;2024-03-23T15:41:24;11.50;99.90
7472;DHT22;3777;48.722;8.110;2024-03-23T15:43:51;11.40;99.90
7472;DHT22;3777;48.722;8.110;2024-03-23T15:46:17;11.50;99.90
7472;DHT22;3777;48.722;8.110;2024-03-23T15:48:45;11.60;99.90
7472;DHT22;3777;48.722;8.110;2024-03-23T15:51:12;11.60;99.90
7472;DHT22;3777;48.722;8.110;2024-03-23T15:53:40;11.70;99.90
7472;DHT22;3777;48.722;8.110;2024-03-23T15:56:07;11.80;99.90
7472;DHT22;3777;48.722;8.110;2024-03-23T15:58:34;11.90;99.90
7472;DHT22;3777;48.722;8.110;2024-03-23T16:01:01;11.90;99.90
7472;DHT22;3777;48.722;8.110;2024-03-23T16:03:29;11.90;99.90
7472;DHT22;3777;48.722;8.110;2024-03-23T16:05:56;11.90;99.90
7472;DHT22;3777;48.722;8.110;2024-03-23T16:08:23;11.80;99.90
7472;DHT22;3777;48.722;8.110;2024-03-23T16:10:50;11.80;99.90
7472;DHT22;3777;48.722;8.110;2024-03-23T16:13:19;11.80;99.90
7472;DHT22;3777;48.722;8.110;2024-03-23T16:15:45;11.60;99.90
7472;DHT22;3777;48.722;8.110;2024-03-23T16:18:12;11.60;99.90
7472;DHT22;3777;48.722;8.110;2024-03-23T16:20:38;11.60;99.90
7472;DHT22;3777;48.722;8.110;2024-03-23T16:23:05;11.60;99.90
7472;DHT22;3777;48.722;8.110;2024-03-23T16:25:31;11.60;99.90
7472;DHT22;3777;48.722;8.110;2024-03-23T16:27:58;11.50;99.90
7472;DHT22;3777;48.722;8.110;2024-03-23T16:30:25;11.40;99.90
7472;DHT22;3777;48.722;8.110;2024-03-23T16:32:53;11.20;99.90
7472;DHT22;3777;48.722;8.110;2024-03-23T16:35:19;10.50;99.90
7472;DHT22;3777;48.722;8.110;2024-03-23T16:37:46;9.90;99.90
7472;DHT22;3777;48.722;8.110;2024-03-23T16:40:13;9.50;99.90
7472;DHT22;3777;48.722;8.110;2024-03-23T16:42:40;9.10;99.90
7472;DHT22;3777;48.722;8.110;2024-03-23T16:45:08;8.60;99.90
7472;DHT22;3777;48.722;8.110;2024-03-23T16:47:36;8.40;99.90
7472;DHT22;3777;48.722;8.110;2024-03-23T16:50:04;8.00;99.90
7472;DHT22;3777;48.722;8.110;2024-03-23T16:52:31;7.90;99.90
7472;DHT22;3777;48.722;8.110;2024-03-23T16:54:57;8.00;99.90